LPMA/FNC METAR and TAF weather

Enter ICAO airport designator
Station Type Date Time Source
LPMA METAR 2019/08/22 15:30 UTC NOAA

LPMA 221530Z 01013KT 340V040 9999 FEW020 26/16 Q1016


Station Type Date Time Source
LPMA Decoded METAR 2019/08/22 15:30 UTC NOAA

Station name not available
Aug 22, 2019 - 11:30 AM EDT / 2019.08.22 1530 UTC
Wind: from the N (010 degrees) at 15 MPH (13 KT) (direction variable):0
Visibility: greater than 7 mile(s):0
Sky conditions: mostly clear
Temperature: 78 F (26 C)
Dew Point: 60 F (16 C)
Relative Humidity: 54%
Pressure (altimeter): 30.00 in. Hg (1016 hPa)
ob: LPMA 221530Z 01013KT 340V040 9999 FEW020 26/16 Q1016
cycle: 15

Station Type Date Time Source
LPMA TAF 2019/08/22 12:18 UTC NOAA

TAF LPMA 221100Z 2212/2312 02013KT 9999 SCT018
TEMPO 2212/2224 02017G27KT

Example: see airport list